Terminal Aerodrome Forecast
Issued by NWS

Home | Current Version | Previous Version | Text Only | Print | Product List | Glossary On
Versions: 1 2 3 4 5 6 7 8 9 10 11 12 13 14 15
207
FTUS41 KBTV 010520
TAFMPV
TAF
KMPV 010520Z 0106/0206 00000KT P6SM SKC
     FM010800 00000KT 1SM BR BKN003
     FM011100 00000KT P6SM SKC
     FM011600 17006KT P6SM SCT130
     FM011800 18009KT P6SM VCSH BKN060
     FM012200 17009KT 4SM +SHRA BR BKN060
     FM020200 20008KT 6SM -SHRA BR OVC060
     FM020400 20006KT P6SM VCSH BKN035=

USA.gov is the U.S. government's official web portal to all federal, state and local government web resources and services.